LDZD/ZAD METAR and TAF weather

Enter ICAO airport designator
Station Type Date Time Source
LDZD METAR 2021/09/19 13:30 UTC NOAA

LDZD 191330Z 19012KT 150V240 9999 SCT030 25/19 Q1012 NOSIG


Station Type Date Time Source
LDZD Decoded METAR 2021/09/19 13:30 UTC NOAA

Zadar / Zemunik, Croatia (LDZD) 44-06N 015-21E
Sep 19, 2021 - 09:30 AM EDT / 2021.09.19 1330 UTC
Wind: from the S (190 degrees) at 14 MPH (12 KT) (direction variable):0
Visibility: greater than 7 mile(s):0
Sky conditions: partly cloudy
Temperature: 77 F (25 C)
Dew Point: 66 F (19 C)
Relative Humidity: 69%
Pressure (altimeter): 29.88 in. Hg (1012 hPa)
ob: LDZD 191330Z 19012KT 150V240 9999 SCT030 25/19 Q1012 NOSIG
cycle: 13

Station Type Date Time Source
LDZD TAF 2021/09/19 12:29 UTC NOAA

TAF LDZD 191125Z 1912/2012 18008KT 9999 SCT040 TX25/1913Z TN14/2004Z PROB30
TEMPO 1912/1915 TSRA FEW030CB SCT040
BECMG 1915/1917 14008KT
TEMPO 1918/2002 16012KT TSRA FEW030CB BKN040 PROB40
TEMPO 1921/2001 VRB15G30KT 2000 +TSRA SCT020CB OVC030
BECMG 2000/2002 34006KT
BECMG 2009/2011 26008KT FEW030TCU

Example: see airport list